sensor_id;sensor_type;location;lat;lon;timestamp;noise_LAeq;noise_LA_min;noise_LA_max;noise_LA01;noise_LA95
61249;Laerm;47119;49.130;9.218;2023-07-24T00:00:19;66.83;47.58;70.09;;
61249;Laerm;47119;49.130;9.218;2023-07-24T00:02:52;61.10;46.04;67.43;;
61249;Laerm;47119;49.130;9.218;2023-07-24T00:05:23;47.95;45.81;61.02;;
61249;Laerm;47119;49.130;9.218;2023-07-24T00:07:50;47.45;45.61;60.62;;
61249;Laerm;47119;49.130;9.218;2023-07-24T00:10:19;50.59;45.72;66.13;;
61249;Laerm;47119;49.130;9.218;2023-07-24T00:12:46;47.47;45.66;58.56;;
61249;Laerm;47119;49.130;9.218;2023-07-24T00:15:15;47.29;45.69;59.24;;
61249;Laerm;47119;49.130;9.218;2023-07-24T00:17:45;47.01;45.65;59.09;;
61249;Laerm;47119;49.130;9.218;2023-07-24T00:20:15;47.09;45.68;60.03;;
61249;Laerm;47119;49.130;9.218;2023-07-24T00:22:42;46.92;45.42;59.93;;
61249;Laerm;47119;49.130;9.218;2023-07-24T00:25:12;46.82;45.50;60.34;;
61249;Laerm;47119;49.130;9.218;2023-07-24T00:27:41;46.95;45.59;53.34;;
61249;Laerm;47119;49.130;9.218;2023-07-24T00:30:09;47.14;45.62;56.37;;
61249;Laerm;47119;49.130;9.218;2023-07-24T00:32:36;47.08;45.71;60.10;;
61249;Laerm;47119;49.130;9.218;2023-07-24T00:35:05;47.11;45.83;60.79;;
61249;Laerm;47119;49.130;9.218;2023-07-24T00:37:34;47.01;45.69;60.89;;
61249;Laerm;47119;49.130;9.218;2023-07-24T00:40:01;47.20;45.62;60.69;;
61249;Laerm;47119;49.130;9.218;2023-07-24T00:42:31;47.27;45.66;59.91;;
61249;Laerm;47119;49.130;9.218;2023-07-24T00:44:58;47.22;45.96;59.58;;
61249;Laerm;47119;49.130;9.218;2023-07-24T00:47:27;47.15;45.84;60.59;;
61249;Laerm;47119;49.130;9.218;2023-07-24T00:49:57;46.99;45.70;59.65;;
61249;Laerm;47119;49.130;9.218;2023-07-24T00:52:25;46.88;45.45;53.87;;
61249;Laerm;47119;49.130;9.218;2023-07-24T00:54:56;46.91;45.58;60.32;;
61249;Laerm;47119;49.130;9.218;2023-07-24T00:57:25;46.86;45.66;53.17;;
61249;Laerm;47119;49.130;9.218;2023-07-24T00:59:52;46.84;45.66;53.77;;
61249;Laerm;47119;49.130;9.218;2023-07-24T01:02:23;46.86;45.67;56.75;;
61249;Laerm;47119;49.130;9.218;2023-07-24T01:04:50;46.87;45.34;59.37;;
61249;Laerm;47119;49.130;9.218;2023-07-24T01:07:20;47.33;45.69;57.58;;
61249;Laerm;47119;49.130;9.218;2023-07-24T01:09:47;47.02;45.22;57.29;;
61249;Laerm;47119;49.130;9.218;2023-07-24T01:12:31;47.14;45.69;60.24;;
61249;Laerm;47119;49.130;9.218;2023-07-24T01:15:13;46.81;45.65;54.11;;
61249;Laerm;47119;49.130;9.218;2023-07-24T01:17:50;46.85;45.73;58.23;;
61249;Laerm;47119;49.130;9.218;2023-07-24T01:20:26;46.88;45.60;57.74;;
61249;Laerm;47119;49.130;9.218;2023-07-24T01:23:14;46.83;45.63;57.48;;
61249;Laerm;47119;49.130;9.218;2023-07-24T01:25:56;46.78;45.59;56.97;;
61249;Laerm;47119;49.130;9.218;2023-07-24T01:28:27;46.78;45.31;57.35;;
61249;Laerm;47119;49.130;9.218;2023-07-24T01:30:55;46.77;45.43;54.75;;
61249;Laerm;47119;49.130;9.218;2023-07-24T01:33:22;46.80;45.47;56.77;;
61249;Laerm;47119;49.130;9.218;2023-07-24T01:35:55;46.79;45.56;56.49;;
61249;Laerm;47119;49.130;9.218;2023-07-24T01:38:31;46.79;45.49;54.05;;
61249;Laerm;47119;49.130;9.218;2023-07-24T01:41:00;46.78;45.47;57.99;;
61249;Laerm;47119;49.130;9.218;2023-07-24T01:43:30;46.76;45.54;53.63;;
61249;Laerm;47119;49.130;9.218;2023-07-24T01:45:58;46.76;45.52;56.14;;
61249;Laerm;47119;49.130;9.218;2023-07-24T01:48:25;46.93;45.68;54.70;;
61249;Laerm;47119;49.130;9.218;2023-07-24T01:50:54;46.83;45.58;53.48;;
61249;Laerm;47119;49.130;9.218;2023-07-24T01:53:23;46.78;45.35;58.95;;
61249;Laerm;47119;49.130;9.218;2023-07-24T01:55:50;46.77;45.41;58.75;;
61249;Laerm;47119;49.130;9.218;2023-07-24T01:58:21;46.86;45.58;57.25;;
61249;Laerm;47119;49.130;9.218;2023-07-24T02:00:48;47.32;46.00;58.58;;
61249;Laerm;47119;49.130;9.218;2023-07-24T02:03:15;47.41;45.94;58.69;;
61249;Laerm;47119;49.130;9.218;2023-07-24T02:05:49;47.82;45.78;58.60;;
61249;Laerm;47119;49.130;9.218;2023-07-24T02:08:17;47.98;46.25;59.11;;
61249;Laerm;47119;49.130;9.218;2023-07-24T02:10:49;48.00;46.15;59.10;;
61249;Laerm;47119;49.130;9.218;2023-07-24T02:13:16;47.96;46.19;57.03;;
61249;Laerm;47119;49.130;9.218;2023-07-24T02:15:49;47.27;45.86;57.79;;
61249;Laerm;47119;49.130;9.218;2023-07-24T02:18:17;47.50;46.13;59.65;;
61249;Laerm;47119;49.130;9.218;2023-07-24T02:20:50;47.43;46.10;58.99;;
61249;Laerm;47119;49.130;9.218;2023-07-24T02:23:17;47.45;46.06;59.14;;
61249;Laerm;47119;49.130;9.218;2023-07-24T02:25:51;47.50;46.17;59.36;;
61249;Laerm;47119;49.130;9.218;2023-07-24T02:28:21;47.53;46.26;59.04;;
61249;Laerm;47119;49.130;9.218;2023-07-24T02:30:52;47.62;46.12;56.54;;
61249;Laerm;47119;49.130;9.218;2023-07-24T02:33:21;47.79;46.26;54.93;;
61249;Laerm;47119;49.130;9.218;2023-07-24T02:35:52;47.84;46.14;59.08;;
61249;Laerm;47119;49.130;9.218;2023-07-24T02:38:19;47.82;46.50;59.07;;
61249;Laerm;47119;49.130;9.218;2023-07-24T02:40:51;47.77;46.38;56.52;;
61249;Laerm;47119;49.130;9.218;2023-07-24T02:43:18;47.71;46.29;57.64;;
61249;Laerm;47119;49.130;9.218;2023-07-24T02:45:45;48.00;46.37;58.73;;
61249;Laerm;47119;49.130;9.218;2023-07-24T02:48:17;47.78;45.95;57.67;;
61249;Laerm;47119;49.130;9.218;2023-07-24T02:50:43;47.87;46.37;58.80;;
61249;Laerm;47119;49.130;9.218;2023-07-24T02:53:11;47.94;46.41;55.47;;
61249;Laerm;47119;49.130;9.218;2023-07-24T02:55:42;48.22;46.03;56.80;;
61249;Laerm;47119;49.130;9.218;2023-07-24T02:58:14;48.09;45.87;56.81;;
61249;Laerm;47119;49.130;9.218;2023-07-24T03:00:41;48.07;46.14;56.40;;
61249;Laerm;47119;49.130;9.218;2023-07-24T03:03:12;48.04;46.00;58.64;;
61249;Laerm;47119;49.130;9.218;2023-07-24T03:05:43;47.92;46.38;58.52;;
61249;Laerm;47119;49.130;9.218;2023-07-24T03:08:12;47.83;46.17;53.57;;
61249;Laerm;47119;49.130;9.218;2023-07-24T03:10:41;48.25;46.85;58.70;;
61249;Laerm;47119;49.130;9.218;2023-07-24T03:13:10;48.18;46.71;58.39;;
61249;Laerm;47119;49.130;9.218;2023-07-24T03:15:37;48.19;46.56;55.12;;
61249;Laerm;47119;49.130;9.218;2023-07-24T03:18:04;48.10;46.36;58.75;;
61249;Laerm;47119;49.130;9.218;2023-07-24T03:20:31;48.22;46.37;56.88;;
61249;Laerm;47119;49.130;9.218;2023-07-24T03:22:59;48.22;46.52;58.91;;
61249;Laerm;47119;49.130;9.218;2023-07-24T03:25:29;48.26;46.75;59.00;;
61249;Laerm;47119;49.130;9.218;2023-07-24T03:27:59;48.29;46.68;59.11;;
61249;Laerm;47119;49.130;9.218;2023-07-24T03:30:26;48.07;46.34;59.06;;
61249;Laerm;47119;49.130;9.218;2023-07-24T03:32:53;48.07;46.43;57.96;;
61249;Laerm;47119;49.130;9.218;2023-07-24T03:35:20;48.08;46.59;58.89;;
61249;Laerm;47119;49.130;9.218;2023-07-24T03:37:51;48.04;46.71;57.54;;
61249;Laerm;47119;49.130;9.218;2023-07-24T03:40:24;48.08;46.52;57.57;;
61249;Laerm;47119;49.130;9.218;2023-07-24T03:42:53;48.05;46.87;57.31;;
61249;Laerm;47119;49.130;9.218;2023-07-24T03:45:20;48.07;46.70;52.95;;
61249;Laerm;47119;49.130;9.218;2023-07-24T03:47:47;48.25;46.76;58.86;;
61249;Laerm;47119;49.130;9.218;2023-07-24T03:50:16;48.22;46.62;58.85;;
61249;Laerm;47119;49.130;9.218;2023-07-24T03:52:43;48.14;46.81;58.05;;
61249;Laerm;47119;49.130;9.218;2023-07-24T03:55:15;48.03;46.55;58.60;;
61249;Laerm;47119;49.130;9.218;2023-07-24T03:57:45;48.09;46.32;58.97;;
61249;Laerm;47119;49.130;9.218;2023-07-24T04:00:17;48.02;46.68;57.80;;
61249;Laerm;47119;49.130;9.218;2023-07-24T04:02:45;47.93;46.50;58.38;;
61249;Laerm;47119;49.130;9.218;2023-07-24T04:05:13;47.78;46.30;58.36;;
61249;Laerm;47119;49.130;9.218;2023-07-24T04:07:40;48.15;46.37;58.48;;
61249;Laerm;47119;49.130;9.218;2023-07-24T04:10:08;48.10;46.61;61.41;;
61249;Laerm;47119;49.130;9.218;2023-07-24T04:12:37;47.89;46.39;58.42;;
61249;Laerm;47119;49.130;9.218;2023-07-24T04:15:10;47.66;46.07;53.32;;
61249;Laerm;47119;49.130;9.218;2023-07-24T04:17:40;47.17;45.98;58.41;;
61249;Laerm;47119;49.130;9.218;2023-07-24T04:20:09;47.17;45.87;56.62;;
61249;Laerm;47119;49.130;9.218;2023-07-24T04:22:38;47.14;45.90;57.65;;
61249;Laerm;47119;49.130;9.218;2023-07-24T04:25:11;47.20;45.88;52.60;;
61249;Laerm;47119;49.130;9.218;2023-07-24T04:27:38;49.71;45.76;64.66;;
61249;Laerm;47119;49.130;9.218;2023-07-24T04:30:11;53.52;45.87;71.44;;
61249;Laerm;47119;49.130;9.218;2023-07-24T04:32:38;48.74;45.52;57.64;;
61249;Laerm;47119;49.130;9.218;2023-07-24T04:35:07;46.66;45.58;50.01;;
61249;Laerm;47119;49.130;9.218;2023-07-24T04:37:34;47.64;45.52;57.35;;
61249;Laerm;47119;49.130;9.218;2023-07-24T04:40:07;47.88;45.57;61.77;;
61249;Laerm;47119;49.130;9.218;2023-07-24T04:42:34;48.75;45.56;61.73;;
61249;Laerm;47119;49.130;9.218;2023-07-24T04:45:01;54.96;45.62;71.15;;
61249;Laerm;47119;49.130;9.218;2023-07-24T04:47:29;53.53;45.72;68.02;;
61249;Laerm;47119;49.130;9.218;2023-07-24T04:49:56;53.55;46.02;67.04;;
61249;Laerm;47119;49.130;9.218;2023-07-24T04:52:26;51.25;45.86;66.84;;
61249;Laerm;47119;49.130;9.218;2023-07-24T04:54:53;58.51;46.12;64.21;;
61249;Laerm;47119;49.130;9.218;2023-07-24T04:57:22;60.21;55.41;64.39;;
61249;Laerm;47119;49.130;9.218;2023-07-24T04:59:49;60.15;55.18;64.28;;
61249;Laerm;47119;49.130;9.218;2023-07-24T05:02:16;60.06;55.86;63.55;;
61249;Laerm;47119;49.130;9.218;2023-07-24T05:04:44;59.49;45.57;66.35;;
61249;Laerm;47119;49.130;9.218;2023-07-24T05:07:11;50.22;45.56;66.18;;
61249;Laerm;47119;49.130;9.218;2023-07-24T05:09:38;52.84;45.74;67.57;;
61249;Laerm;47119;49.130;9.218;2023-07-24T05:12:06;46.89;45.36;53.57;;
61249;Laerm;47119;49.130;9.218;2023-07-24T05:14:36;46.92;45.77;56.47;;
61249;Laerm;47119;49.130;9.218;2023-07-24T05:17:05;46.92;45.63;52.90;;
61249;Laerm;47119;49.130;9.218;2023-07-24T05:19:32;46.87;45.61;52.81;;
61249;Laerm;47119;49.130;9.218;2023-07-24T05:22:01;46.87;45.68;55.20;;
61249;Laerm;47119;49.130;9.218;2023-07-24T05:24:28;47.34;45.75;60.05;;
61249;Laerm;47119;49.130;9.218;2023-07-24T05:26:58;49.96;45.69;61.84;;
61249;Laerm;47119;49.130;9.218;2023-07-24T05:29:25;51.63;45.70;61.27;;
61249;Laerm;47119;49.130;9.218;2023-07-24T05:31:52;54.84;46.13;67.53;;
61249;Laerm;47119;49.130;9.218;2023-07-24T05:34:19;54.39;45.49;65.13;;
61249;Laerm;47119;49.130;9.218;2023-07-24T05:36:46;54.44;45.63;64.94;;
61249;Laerm;47119;49.130;9.218;2023-07-24T05:39:15;54.13;45.31;64.69;;
61249;Laerm;47119;49.130;9.218;2023-07-24T05:41:42;55.08;45.36;65.01;;
61249;Laerm;47119;49.130;9.218;2023-07-24T05:44:09;54.21;45.44;65.43;;
61249;Laerm;47119;49.130;9.218;2023-07-24T05:46:40;54.18;45.71;63.39;;
61249;Laerm;47119;49.130;9.218;2023-07-24T05:49:29;52.50;46.19;61.15;;
61249;Laerm;47119;49.130;9.218;2023-07-24T05:51:56;55.76;46.10;64.76;;
61249;Laerm;47119;49.130;9.218;2023-07-24T05:54:27;48.16;45.97;64.46;;
61249;Laerm;47119;49.130;9.218;2023-07-24T05:56:56;47.05;45.71;53.29;;
61249;Laerm;47119;49.130;9.218;2023-07-24T05:59:23;46.97;45.82;52.96;;
61249;Laerm;47119;49.130;9.218;2023-07-24T06:01:50;51.68;45.62;64.46;;
61249;Laerm;47119;49.130;9.218;2023-07-24T06:04:17;53.00;45.72;60.71;;
61249;Laerm;47119;49.130;9.218;2023-07-24T06:06:46;52.90;46.04;65.89;;
61249;Laerm;47119;49.130;9.218;2023-07-24T06:09:14;50.94;47.40;61.01;;
61249;Laerm;47119;49.130;9.218;2023-07-24T06:11:51;51.56;46.76;61.20;;
61249;Laerm;47119;49.130;9.218;2023-07-24T06:14:45;48.71;46.69;58.21;;
61249;Laerm;47119;49.130;9.218;2023-07-24T06:17:12;48.37;46.80;52.53;;
61249;Laerm;47119;49.130;9.218;2023-07-24T06:19:44;48.47;46.10;52.81;;
61249;Laerm;47119;49.130;9.218;2023-07-24T06:22:14;48.71;45.72;56.84;;
61249;Laerm;47119;49.130;9.218;2023-07-24T06:24:44;48.04;45.81;57.25;;
61249;Laerm;47119;49.130;9.218;2023-07-24T06:27:14;48.13;45.84;62.03;;
61249;Laerm;47119;49.130;9.218;2023-07-24T06:29:42;47.76;45.64;54.67;;
61249;Laerm;47119;49.130;9.218;2023-07-24T06:32:11;49.71;45.90;61.79;;
61249;Laerm;47119;49.130;9.218;2023-07-24T06:34:40;50.14;46.60;54.82;;
61249;Laerm;47119;49.130;9.218;2023-07-24T06:37:07;49.92;46.18;54.68;;
61249;Laerm;47119;49.130;9.218;2023-07-24T06:39:34;50.17;46.53;55.01;;
61249;Laerm;47119;49.130;9.218;2023-07-24T06:42:05;50.40;46.88;54.35;;
61249;Laerm;47119;49.130;9.218;2023-07-24T06:44:33;49.95;46.30;56.03;;
61249;Laerm;47119;49.130;9.218;2023-07-24T06:47:00;50.59;46.46;56.13;;
61249;Laerm;47119;49.130;9.218;2023-07-24T06:49:28;50.83;46.55;55.62;;
61249;Laerm;47119;49.130;9.218;2023-07-24T06:51:55;52.17;46.95;56.83;;
61249;Laerm;47119;49.130;9.218;2023-07-24T06:54:22;52.53;47.06;57.45;;
61249;Laerm;47119;49.130;9.218;2023-07-24T06:56:49;54.38;47.74;57.35;;
61249;Laerm;47119;49.130;9.218;2023-07-24T06:59:16;53.20;47.34;60.60;;
61249;Laerm;47119;49.130;9.218;2023-07-24T07:01:44;52.86;47.99;55.90;;
61249;Laerm;47119;49.130;9.218;2023-07-24T07:04:12;52.79;47.84;60.25;;
61249;Laerm;47119;49.130;9.218;2023-07-24T07:06:39;52.21;47.62;58.12;;
61249;Laerm;47119;49.130;9.218;2023-07-24T07:09:06;52.21;47.94;56.40;;
61249;Laerm;47119;49.130;9.218;2023-07-24T07:11:33;52.60;48.49;55.66;;
61249;Laerm;47119;49.130;9.218;2023-07-24T07:14:00;52.70;48.77;56.69;;
61249;Laerm;47119;49.130;9.218;2023-07-24T07:16:29;52.61;48.49;56.35;;
61249;Laerm;47119;49.130;9.218;2023-07-24T07:18:58;57.35;47.37;66.62;;
61249;Laerm;47119;49.130;9.218;2023-07-24T07:21:27;52.10;47.36;59.01;;
61249;Laerm;47119;49.130;9.218;2023-07-24T07:23:54;52.79;47.14;59.19;;
61249;Laerm;47119;49.130;9.218;2023-07-24T07:26:23;52.79;47.26;58.94;;
61249;Laerm;47119;49.130;9.218;2023-07-24T07:28:50;51.19;47.31;58.09;;
61249;Laerm;47119;49.130;9.218;2023-07-24T07:31:17;51.17;47.00;56.75;;
61249;Laerm;47119;49.130;9.218;2023-07-24T07:33:44;51.48;47.69;56.59;;
61249;Laerm;47119;49.130;9.218;2023-07-24T07:36:13;51.56;47.52;56.17;;
61249;Laerm;47119;49.130;9.218;2023-07-24T07:38:44;52.12;48.05;59.62;;
61249;Laerm;47119;49.130;9.218;2023-07-24T07:41:13;51.08;46.68;56.23;;
61249;Laerm;47119;49.130;9.218;2023-07-24T07:43:42;50.40;47.03;57.65;;
61249;Laerm;47119;49.130;9.218;2023-07-24T07:46:12;50.00;46.42;57.30;;
61249;Laerm;47119;49.130;9.218;2023-07-24T07:48:39;49.37;46.69;55.61;;
61249;Laerm;47119;49.130;9.218;2023-07-24T07:51:06;49.74;46.64;55.76;;
61249;Laerm;47119;49.130;9.218;2023-07-24T07:53:37;55.01;46.48;64.95;;
61249;Laerm;47119;49.130;9.218;2023-07-24T07:56:06;57.72;46.65;65.02;;
61249;Laerm;47119;49.130;9.218;2023-07-24T07:58:33;55.70;46.84;58.25;;
61249;Laerm;47119;49.130;9.218;2023-07-24T08:01:04;56.08;46.00;61.45;;
61249;Laerm;47119;49.130;9.218;2023-07-24T08:03:33;53.26;46.33;60.48;;
61249;Laerm;47119;49.130;9.218;2023-07-24T08:06:03;51.91;46.64;66.01;;
61249;Laerm;47119;49.130;9.218;2023-07-24T08:08:35;50.21;46.06;62.92;;
61249;Laerm;47119;49.130;9.218;2023-07-24T08:11:05;49.04;45.77;61.23;;
61249;Laerm;47119;49.130;9.218;2023-07-24T08:13:35;48.41;45.64;53.33;;
61249;Laerm;47119;49.130;9.218;2023-07-24T08:16:13;46.75;45.53;63.44;;
61249;Laerm;47119;49.130;9.218;2023-07-24T08:18:50;54.99;45.50;63.66;;
61249;Laerm;47119;49.130;9.218;2023-07-24T08:21:17;49.00;45.87;60.39;;
61249;Laerm;47119;49.130;9.218;2023-07-24T08:23:44;48.18;45.92;55.81;;
61249;Laerm;47119;49.130;9.218;2023-07-24T08:26:12;50.06;45.54;61.50;;
61249;Laerm;47119;49.130;9.218;2023-07-24T08:28:39;49.21;45.83;61.35;;
61249;Laerm;47119;49.130;9.218;2023-07-24T08:31:08;50.76;46.10;61.74;;
61249;Laerm;47119;49.130;9.218;2023-07-24T08:33:35;51.85;46.07;63.34;;
61249;Laerm;47119;49.130;9.218;2023-07-24T08:36:07;51.00;45.98;63.22;;
61249;Laerm;47119;49.130;9.218;2023-07-24T08:38:36;48.17;45.80;56.60;;
61249;Laerm;47119;49.130;9.218;2023-07-24T08:41:05;52.88;45.60;63.33;;
61249;Laerm;47119;49.130;9.218;2023-07-24T08:43:38;52.35;45.93;61.75;;
61249;Laerm;47119;49.130;9.218;2023-07-24T08:46:08;50.18;46.22;60.25;;
61249;Laerm;47119;49.130;9.218;2023-07-24T08:48:38;51.29;45.69;61.68;;
61249;Laerm;47119;49.130;9.218;2023-07-24T08:51:07;53.77;45.41;63.75;;
61249;Laerm;47119;49.130;9.218;2023-07-24T08:53:36;47.48;45.54;55.16;;
61249;Laerm;47119;49.130;9.218;2023-07-24T08:56:07;47.68;45.61;53.92;;
61249;Laerm;47119;49.130;9.218;2023-07-24T08:58:41;48.89;46.02;56.76;;
61249;Laerm;47119;49.130;9.218;2023-07-24T09:01:08;49.18;45.61;60.00;;
61249;Laerm;47119;49.130;9.218;2023-07-24T09:03:36;46.83;45.40;55.26;;
61249;Laerm;47119;49.130;9.218;2023-07-24T09:06:07;49.08;45.55;61.61;;
61249;Laerm;47119;49.130;9.218;2023-07-24T09:12:49;47.62;45.70;61.11;;
61249;Laerm;47119;49.130;9.218;2023-07-24T09:15:20;47.93;45.92;62.01;;
61249;Laerm;47119;49.130;9.218;2023-07-24T09:17:49;47.56;46.24;53.37;;
61249;Laerm;47119;49.130;9.218;2023-07-24T09:20:20;47.78;45.93;61.84;;
61249;Laerm;47119;49.130;9.218;2023-07-24T09:22:50;47.95;46.11;61.05;;
61249;Laerm;47119;49.130;9.218;2023-07-24T09:25:29;50.39;46.07;60.19;;
61249;Laerm;47119;49.130;9.218;2023-07-24T09:27:57;55.27;45.81;68.15;;
61249;Laerm;47119;49.130;9.218;2023-07-24T09:30:28;48.66;45.29;66.66;;
61249;Laerm;47119;49.130;9.218;2023-07-24T09:32:57;48.76;45.75;64.14;;
61249;Laerm;47119;49.130;9.218;2023-07-24T09:35:24;49.83;45.64;63.91;;
61249;Laerm;47119;49.130;9.218;2023-07-24T09:38:04;48.25;45.78;68.02;;
61249;Laerm;47119;49.130;9.218;2023-07-24T09:40:40;47.77;45.76;62.73;;
61249;Laerm;47119;49.130;9.218;2023-07-24T09:43:17;56.68;45.97;66.35;;
61249;Laerm;47119;49.130;9.218;2023-07-24T09:45:46;58.38;46.68;63.60;;
61249;Laerm;47119;49.130;9.218;2023-07-24T09:48:15;56.41;48.04;61.98;;
61249;Laerm;47119;49.130;9.218;2023-07-24T09:50:46;58.95;50.78;65.89;;
61249;Laerm;47119;49.130;9.218;2023-07-24T09:53:21;58.13;49.74;61.92;;
61249;Laerm;47119;49.130;9.218;2023-07-24T09:55:56;54.41;45.54;59.90;;
61249;Laerm;47119;49.130;9.218;2023-07-24T09:58:26;49.00;45.51;61.60;;
61249;Laerm;47119;49.130;9.218;2023-07-24T10:00:57;50.29;45.26;65.40;;
61249;Laerm;47119;49.130;9.218;2023-07-24T10:03:26;46.51;45.41;55.61;;
61249;Laerm;47119;49.130;9.218;2023-07-24T10:05:57;46.49;45.39;47.65;;
61249;Laerm;47119;49.130;9.218;2023-07-24T10:08:27;46.54;45.41;58.02;;
61249;Laerm;47119;49.130;9.218;2023-07-24T10:10:54;46.52;45.38;56.65;;
61249;Laerm;47119;49.130;9.218;2023-07-24T10:13:22;46.53;45.32;49.05;;
61249;Laerm;47119;49.130;9.218;2023-07-24T10:16:00;46.55;45.41;58.68;;
61249;Laerm;47119;49.130;9.218;2023-07-24T10:19:01;46.80;45.35;60.96;;
61249;Laerm;47119;49.130;9.218;2023-07-24T10:21:54;47.04;45.18;62.34;;
61249;Laerm;47119;49.130;9.218;2023-07-24T10:24:44;47.17;45.49;64.11;;
61249;Laerm;47119;49.130;9.218;2023-07-24T10:27:12;50.99;45.63;68.85;;
61249;Laerm;47119;49.130;9.218;2023-07-24T10:29:41;50.41;45.43;56.53;;
61249;Laerm;47119;49.130;9.218;2023-07-24T10:32:20;47.59;45.46;57.57;;
61249;Laerm;47119;49.130;9.218;2023-07-24T10:34:57;46.79;45.34;59.14;;
61249;Laerm;47119;49.130;9.218;2023-07-24T10:37:36;47.05;45.43;59.43;;
61249;Laerm;47119;49.130;9.218;2023-07-24T10:40:18;46.75;45.48;58.87;;
61249;Laerm;47119;49.130;9.218;2023-07-24T10:42:45;51.49;45.35;69.08;;
61249;Laerm;47119;49.130;9.218;2023-07-24T10:45:16;47.98;45.71;58.63;;
61249;Laerm;47119;49.130;9.218;2023-07-24T10:47:47;52.68;45.54;67.04;;
61249;Laerm;47119;49.130;9.218;2023-07-24T10:50:19;51.10;45.50;66.44;;
61249;Laerm;47119;49.130;9.218;2023-07-24T10:52:47;52.68;50.33;60.96;;
61249;Laerm;47119;49.130;9.218;2023-07-24T10:55:14;52.75;50.58;61.09;;
61249;Laerm;47119;49.130;9.218;2023-07-24T10:57:41;52.65;47.75;61.38;;
61249;Laerm;47119;49.130;9.218;2023-07-24T11:00:15;50.61;47.45;62.79;;
61249;Laerm;47119;49.130;9.218;2023-07-24T11:02:43;55.32;46.08;66.56;;
61249;Laerm;47119;49.130;9.218;2023-07-24T11:05:13;58.55;45.67;66.74;;
61249;Laerm;47119;49.130;9.218;2023-07-24T11:07:40;53.17;45.44;66.53;;
61249;Laerm;47119;49.130;9.218;2023-07-24T11:10:15;52.33;45.50;67.87;;
61249;Laerm;47119;49.130;9.218;2023-07-24T11:12:45;53.58;46.07;64.56;;
61249;Laerm;47119;49.130;9.218;2023-07-24T11:15:14;54.78;45.75;64.92;;
61249;Laerm;47119;49.130;9.218;2023-07-24T11:17:42;52.08;46.08;61.86;;
61249;Laerm;47119;49.130;9.218;2023-07-24T11:20:13;49.31;46.90;55.74;;
61249;Laerm;47119;49.130;9.218;2023-07-24T11:22:43;48.09;46.24;55.36;;
61249;Laerm;47119;49.130;9.218;2023-07-24T11:25:12;49.07;45.78;56.41;;
61249;Laerm;47119;49.130;9.218;2023-07-24T11:27:41;49.99;46.41;57.06;;
61249;Laerm;47119;49.130;9.218;2023-07-24T11:30:11;49.54;46.09;59.74;;
61249;Laerm;47119;49.130;9.218;2023-07-24T11:32:39;48.21;46.29;55.70;;
61249;Laerm;47119;49.130;9.218;2023-07-24T11:35:08;47.75;46.03;54.59;;
61249;Laerm;47119;49.130;9.218;2023-07-24T11:37:37;47.82;46.18;55.76;;
61249;Laerm;47119;49.130;9.218;2023-07-24T11:40:06;47.41;46.12;55.65;;
61249;Laerm;47119;49.130;9.218;2023-07-24T11:42:41;47.24;45.84;55.77;;
61249;Laerm;47119;49.130;9.218;2023-07-24T11:45:10;47.10;45.59;56.14;;
61249;Laerm;47119;49.130;9.218;2023-07-24T11:47:49;46.96;45.76;56.01;;
61249;Laerm;47119;49.130;9.218;2023-07-24T11:50:17;46.97;45.33;56.23;;
61249;Laerm;47119;49.130;9.218;2023-07-24T11:52:48;47.14;45.81;56.73;;
61249;Laerm;47119;49.130;9.218;2023-07-24T11:55:31;47.09;45.62;56.69;;
61249;Laerm;47119;49.130;9.218;2023-07-24T11:58:01;47.26;45.71;56.86;;
61249;Laerm;47119;49.130;9.218;2023-07-24T12:00:33;47.43;45.75;56.51;;
61249;Laerm;47119;49.130;9.218;2023-07-24T12:03:04;47.37;45.58;57.31;;
61249;Laerm;47119;49.130;9.218;2023-07-24T12:05:38;47.42;45.72;57.45;;
61249;Laerm;47119;49.130;9.218;2023-07-24T12:08:12;48.93;45.64;59.50;;
61249;Laerm;47119;49.130;9.218;2023-07-24T12:10:43;50.65;46.67;59.56;;
61249;Laerm;47119;49.130;9.218;2023-07-24T12:13:12;49.48;46.15;61.41;;
61249;Laerm;47119;49.130;9.218;2023-07-24T12:15:39;52.56;45.93;64.85;;
61249;Laerm;47119;49.130;9.218;2023-07-24T12:18:09;49.98;46.44;57.21;;
61249;Laerm;47119;49.130;9.218;2023-07-24T12:20:35;48.33;46.27;56.76;;
61249;Laerm;47119;49.130;9.218;2023-07-24T12:23:02;48.69;46.45;58.69;;
61249;Laerm;47119;49.130;9.218;2023-07-24T12:25:31;48.39;46.16;54.25;;
61249;Laerm;47119;49.130;9.218;2023-07-24T12:28:00;48.29;46.24;58.15;;
61249;Laerm;47119;49.130;9.218;2023-07-24T12:30:30;49.90;45.92;56.40;;
61249;Laerm;47119;49.130;9.218;2023-07-24T12:32:57;48.81;45.79;54.16;;
61249;Laerm;47119;49.130;9.218;2023-07-24T12:35:25;46.92;45.38;53.32;;
61249;Laerm;47119;49.130;9.218;2023-07-24T12:37:51;50.73;45.80;61.81;;
61249;Laerm;47119;49.130;9.218;2023-07-24T12:40:21;54.34;46.24;62.91;;
61249;Laerm;47119;49.130;9.218;2023-07-24T12:42:49;50.90;46.18;60.14;;
61249;Laerm;47119;49.130;9.218;2023-07-24T12:45:16;48.01;45.82;56.06;;
61249;Laerm;47119;49.130;9.218;2023-07-24T12:47:43;47.00;45.47;53.56;;
61249;Laerm;47119;49.130;9.218;2023-07-24T12:50:10;48.96;45.72;54.62;;
61249;Laerm;47119;49.130;9.218;2023-07-24T12:52:40;48.69;45.79;53.98;;
61249;Laerm;47119;49.130;9.218;2023-07-24T12:55:08;50.77;45.77;66.13;;
61249;Laerm;47119;49.130;9.218;2023-07-24T12:57:35;47.24;45.49;53.39;;
61249;Laerm;47119;49.130;9.218;2023-07-24T13:00:07;47.86;45.72;52.87;;
61249;Laerm;47119;49.130;9.218;2023-07-24T13:02:34;48.16;45.84;54.05;;
61249;Laerm;47119;49.130;9.218;2023-07-24T13:05:05;50.12;45.67;55.72;;
61249;Laerm;47119;49.130;9.218;2023-07-24T13:07:34;52.11;46.67;58.26;;
61249;Laerm;47119;49.130;9.218;2023-07-24T13:10:01;53.33;46.81;65.62;;
61249;Laerm;47119;49.130;9.218;2023-07-24T13:12:28;49.96;45.91;56.59;;
61249;Laerm;47119;49.130;9.218;2023-07-24T13:14:55;50.15;45.88;60.17;;
61249;Laerm;47119;49.130;9.218;2023-07-24T13:17:25;52.34;45.88;62.47;;
61249;Laerm;47119;49.130;9.218;2023-07-24T13:19:59;49.84;45.59;57.78;;
61249;Laerm;47119;49.130;9.218;2023-07-24T13:22:28;51.01;46.04;60.46;;
61249;Laerm;47119;49.130;9.218;2023-07-24T13:24:55;53.50;46.05;67.39;;
61249;Laerm;47119;49.130;9.218;2023-07-24T13:27:22;56.47;48.54;60.74;;
61249;Laerm;47119;49.130;9.218;2023-07-24T13:29:51;56.42;47.66;61.68;;
61249;Laerm;47119;49.130;9.218;2023-07-24T13:32:18;57.01;47.67;61.59;;
61249;Laerm;47119;49.130;9.218;2023-07-24T13:34:49;57.19;47.65;62.33;;
61249;Laerm;47119;49.130;9.218;2023-07-24T13:37:16;57.20;46.86;62.67;;
61249;Laerm;47119;49.130;9.218;2023-07-24T13:39:48;56.96;46.63;62.70;;
61249;Laerm;47119;49.130;9.218;2023-07-24T13:42:17;56.38;46.06;62.06;;
61249;Laerm;47119;49.130;9.218;2023-07-24T13:44:46;57.75;46.16;62.09;;
61249;Laerm;47119;49.130;9.218;2023-07-24T13:47:13;58.17;45.86;62.71;;
61249;Laerm;47119;49.130;9.218;2023-07-24T13:50:29;55.36;46.45;61.50;;
61249;Laerm;47119;49.130;9.218;2023-07-24T13:52:56;55.70;46.63;60.45;;
61249;Laerm;47119;49.130;9.218;2023-07-24T13:55:24;56.16;47.34;60.53;;
61249;Laerm;47119;49.130;9.218;2023-07-24T13:57:51;56.98;47.71;61.64;;
61249;Laerm;47119;49.130;9.218;2023-07-24T14:00:20;56.88;47.00;61.57;;
61249;Laerm;47119;49.130;9.218;2023-07-24T14:02:47;56.88;48.53;61.24;;